sensor_id;sensor_type;location;lat;lon;timestamp;pressure;altitude;pressure_sealevel;temperature;humidity
57412;BME280;43247;52.828;-8.980;2023-05-24T00:00:14;103024.52;;;13.36;75.66
57412;BME280;43247;52.828;-8.980;2023-05-24T00:01:15;103023.21;;;13.35;75.52
57412;BME280;43247;52.828;-8.980;2023-05-24T00:02:15;103027.07;;;13.35;75.39
57412;BME280;43247;52.828;-8.980;2023-05-24T00:03:15;103026.82;;;13.35;75.79
57412;BME280;43247;52.828;-8.980;2023-05-24T00:04:15;103029.55;;;13.34;75.84
57412;BME280;43247;52.828;-8.980;2023-05-24T00:05:15;103029.68;;;13.34;75.91
57412;BME280;43247;52.828;-8.980;2023-05-24T00:06:15;103030.51;;;13.33;75.76
57412;BME280;43247;52.828;-8.980;2023-05-24T00:07:15;103031.64;;;13.32;76.05
57412;BME280;43247;52.828;-8.980;2023-05-24T00:08:16;103032.92;;;13.32;75.86
57412;BME280;43247;52.828;-8.980;2023-05-24T00:09:16;103032.48;;;13.31;75.72
57412;BME280;43247;52.828;-8.980;2023-05-24T00:10:16;103031.87;;;13.30;75.87
57412;BME280;43247;52.828;-8.980;2023-05-24T00:11:16;103029.73;;;13.30;75.75
57412;BME280;43247;52.828;-8.980;2023-05-24T00:12:16;103028.10;;;13.29;76.00
57412;BME280;43247;52.828;-8.980;2023-05-24T00:13:17;103026.82;;;13.29;75.89
57412;BME280;43247;52.828;-8.980;2023-05-24T00:14:17;103024.79;;;13.28;75.98
57412;BME280;43247;52.828;-8.980;2023-05-24T00:15:17;103023.63;;;13.28;76.11
57412;BME280;43247;52.828;-8.980;2023-05-24T00:16:18;103023.23;;;13.27;75.81
57412;BME280;43247;52.828;-8.980;2023-05-24T00:17:18;103023.36;;;13.27;76.00
57412;BME280;43247;52.828;-8.980;2023-05-24T00:18:18;103024.16;;;13.26;75.83
57412;BME280;43247;52.828;-8.980;2023-05-24T00:19:19;103021.49;;;13.26;75.97
57412;BME280;43247;52.828;-8.980;2023-05-24T00:20:19;103019.85;;;13.26;75.86
57412;BME280;43247;52.828;-8.980;2023-05-24T00:21:19;103016.82;;;13.25;76.32
57412;BME280;43247;52.828;-8.980;2023-05-24T00:22:20;103014.04;;;13.24;76.07
57412;BME280;43247;52.828;-8.980;2023-05-24T00:23:20;103012.80;;;13.23;76.16
57412;BME280;43247;52.828;-8.980;2023-05-24T00:24:20;103012.57;;;13.22;76.26
57412;BME280;43247;52.828;-8.980;2023-05-24T00:25:20;103011.95;;;13.22;76.18
57412;BME280;43247;52.828;-8.980;2023-05-24T00:26:20;103010.90;;;13.21;76.03
57412;BME280;43247;52.828;-8.980;2023-05-24T00:27:20;103011.07;;;13.21;76.34
57412;BME280;43247;52.828;-8.980;2023-05-24T00:28:21;103013.87;;;13.21;76.22
57412;BME280;43247;52.828;-8.980;2023-05-24T00:29:21;103013.02;;;13.20;75.98
57412;BME280;43247;52.828;-8.980;2023-05-24T00:30:21;103013.39;;;13.19;76.05
57412;BME280;43247;52.828;-8.980;2023-05-24T00:31:21;103014.93;;;13.19;76.14
57412;BME280;43247;52.828;-8.980;2023-05-24T00:32:22;103016.59;;;13.19;76.26
57412;BME280;43247;52.828;-8.980;2023-05-24T00:33:22;103015.61;;;13.18;76.13
57412;BME280;43247;52.828;-8.980;2023-05-24T00:34:22;103014.97;;;13.17;76.13
57412;BME280;43247;52.828;-8.980;2023-05-24T00:35:22;103016.51;;;13.17;76.11
57412;BME280;43247;52.828;-8.980;2023-05-24T00:36:22;103017.28;;;13.16;76.23
57412;BME280;43247;52.828;-8.980;2023-05-24T00:37:22;103015.72;;;13.16;76.50
57412;BME280;43247;52.828;-8.980;2023-05-24T00:38:23;103014.05;;;13.15;76.37
57412;BME280;43247;52.828;-8.980;2023-05-24T00:39:23;103014.28;;;13.14;76.33
57412;BME280;43247;52.828;-8.980;2023-05-24T00:40:23;103014.16;;;13.14;76.25
57412;BME280;43247;52.828;-8.980;2023-05-24T00:41:23;103010.65;;;13.14;76.37
57412;BME280;43247;52.828;-8.980;2023-05-24T00:42:23;103011.84;;;13.13;76.28
57412;BME280;43247;52.828;-8.980;2023-05-24T00:43:23;103013.16;;;13.12;76.27
57412;BME280;43247;52.828;-8.980;2023-05-24T00:44:24;103013.45;;;13.12;76.17
57412;BME280;43247;52.828;-8.980;2023-05-24T00:45:24;103013.46;;;13.11;76.29
57412;BME280;43247;52.828;-8.980;2023-05-24T00:46:26;103013.89;;;13.11;76.43
57412;BME280;43247;52.828;-8.980;2023-05-24T00:47:24;103012.61;;;13.10;76.30
57412;BME280;43247;52.828;-8.980;2023-05-24T00:48:24;103012.99;;;13.10;76.48
57412;BME280;43247;52.828;-8.980;2023-05-24T00:49:25;103011.72;;;13.09;76.25
57412;BME280;43247;52.828;-8.980;2023-05-24T00:50:25;103013.31;;;13.08;76.19
57412;BME280;43247;52.828;-8.980;2023-05-24T00:51:26;103013.80;;;13.09;76.25
57412;BME280;43247;52.828;-8.980;2023-05-24T00:52:26;103012.07;;;13.08;76.58
57412;BME280;43247;52.828;-8.980;2023-05-24T00:53:26;103011.79;;;13.07;76.53
57412;BME280;43247;52.828;-8.980;2023-05-24T00:54:27;103011.74;;;13.06;76.37
57412;BME280;43247;52.828;-8.980;2023-05-24T00:55:26;103013.92;;;13.05;76.39
57412;BME280;43247;52.828;-8.980;2023-05-24T00:56:27;103014.02;;;13.05;76.24
57412;BME280;43247;52.828;-8.980;2023-05-24T00:57:26;103016.00;;;13.04;76.41
57412;BME280;43247;52.828;-8.980;2023-05-24T00:58:27;103015.84;;;13.03;76.28
57412;BME280;43247;52.828;-8.980;2023-05-24T00:59:27;103016.99;;;13.03;76.46
57412;BME280;43247;52.828;-8.980;2023-05-24T01:00:28;103015.24;;;13.02;76.22
57412;BME280;43247;52.828;-8.980;2023-05-24T01:01:27;103017.69;;;13.01;76.36
57412;BME280;43247;52.828;-8.980;2023-05-24T01:02:27;103018.04;;;13.00;76.35
57412;BME280;43247;52.828;-8.980;2023-05-24T01:03:28;103017.68;;;12.99;76.35
57412;BME280;43247;52.828;-8.980;2023-05-24T01:04:28;103017.99;;;12.97;75.87
57412;BME280;43247;52.828;-8.980;2023-05-24T01:05:28;103016.53;;;12.96;75.19
57412;BME280;43247;52.828;-8.980;2023-05-24T01:06:28;103014.77;;;12.94;74.67
57412;BME280;43247;52.828;-8.980;2023-05-24T01:07:34;103011.31;;;12.94;74.64
57412;BME280;43247;52.828;-8.980;2023-05-24T01:08:41;103012.85;;;12.94;74.52
57412;BME280;43247;52.828;-8.980;2023-05-24T01:09:33;103010.82;;;12.94;74.53
57412;BME280;43247;52.828;-8.980;2023-05-24T01:10:36;103009.37;;;12.95;74.53
57412;BME280;43247;52.828;-8.980;2023-05-24T01:11:38;103007.15;;;12.96;74.56
57412;BME280;43247;52.828;-8.980;2023-05-24T01:12:39;103005.88;;;12.97;74.73
57412;BME280;43247;52.828;-8.980;2023-05-24T01:13:35;103002.82;;;12.97;74.53
57412;BME280;43247;52.828;-8.980;2023-05-24T01:14:38;103003.49;;;12.98;74.79
57412;BME280;43247;52.828;-8.980;2023-05-24T01:15:38;103002.38;;;12.98;74.80
57412;BME280;43247;52.828;-8.980;2023-05-24T01:16:38;103002.13;;;12.98;74.79
57412;BME280;43247;52.828;-8.980;2023-05-24T01:17:35;103001.29;;;12.98;74.87
57412;BME280;43247;52.828;-8.980;2023-05-24T01:18:33;103000.58;;;12.99;75.12
57412;BME280;43247;52.828;-8.980;2023-05-24T01:19:46;103000.95;;;12.98;75.08
57412;BME280;43247;52.828;-8.980;2023-05-24T01:20:33;103000.46;;;12.99;75.34
57412;BME280;43247;52.828;-8.980;2023-05-24T01:21:42;103000.63;;;12.99;75.09
57412;BME280;43247;52.828;-8.980;2023-05-24T01:23:42;103002.03;;;12.99;74.90
57412;BME280;43247;52.828;-8.980;2023-05-24T01:24:43;103002.86;;;13.00;75.39
57412;BME280;43247;52.828;-8.980;2023-05-24T01:25:44;103002.88;;;13.00;75.40
57412;BME280;43247;52.828;-8.980;2023-05-24T01:26:39;103006.15;;;13.00;75.09
57412;BME280;43247;52.828;-8.980;2023-05-24T01:27:36;103006.36;;;13.01;75.00
57412;BME280;43247;52.828;-8.980;2023-05-24T01:28:35;103005.02;;;13.01;74.92
57412;BME280;43247;52.828;-8.980;2023-05-24T01:29:35;103006.11;;;13.01;75.04
57412;BME280;43247;52.828;-8.980;2023-05-24T01:30:34;103005.46;;;13.02;75.08
57412;BME280;43247;52.828;-8.980;2023-05-24T01:31:35;103003.82;;;13.02;74.99
57412;BME280;43247;52.828;-8.980;2023-05-24T01:32:35;103003.55;;;13.03;75.11
57412;BME280;43247;52.828;-8.980;2023-05-24T01:33:40;103002.06;;;13.03;75.00
57412;BME280;43247;52.828;-8.980;2023-05-24T01:34:36;103000.48;;;13.03;75.05
57412;BME280;43247;52.828;-8.980;2023-05-24T01:35:36;103002.79;;;13.04;75.00
57412;BME280;43247;52.828;-8.980;2023-05-24T01:36:36;103002.98;;;13.04;74.89
57412;BME280;43247;52.828;-8.980;2023-05-24T01:37:36;103003.99;;;13.04;74.96
57412;BME280;43247;52.828;-8.980;2023-05-24T01:38:37;103002.36;;;13.04;74.95
57412;BME280;43247;52.828;-8.980;2023-05-24T01:39:37;103001.78;;;13.04;74.94
57412;BME280;43247;52.828;-8.980;2023-05-24T01:40:37;102998.55;;;13.02;74.75
57412;BME280;43247;52.828;-8.980;2023-05-24T01:41:40;103000.02;;;12.91;74.32
57412;BME280;43247;52.828;-8.980;2023-05-24T01:42:43;102998.85;;;12.80;73.92
57412;BME280;43247;52.828;-8.980;2023-05-24T01:43:40;102997.83;;;12.81;73.59
57412;BME280;43247;52.828;-8.980;2023-05-24T01:44:43;103000.38;;;12.79;73.40
57412;BME280;43247;52.828;-8.980;2023-05-24T01:45:41;102999.30;;;12.78;73.38
57412;BME280;43247;52.828;-8.980;2023-05-24T01:46:38;102999.80;;;12.74;73.46
57412;BME280;43247;52.828;-8.980;2023-05-24T01:47:48;103000.28;;;12.73;73.51
57412;BME280;43247;52.828;-8.980;2023-05-24T01:48:45;103001.75;;;12.73;73.44
57412;BME280;43247;52.828;-8.980;2023-05-24T01:49:43;103000.89;;;12.77;73.44
57412;BME280;43247;52.828;-8.980;2023-05-24T01:50:45;102997.79;;;12.82;73.51
57412;BME280;43247;52.828;-8.980;2023-05-24T01:51:43;102995.53;;;12.87;73.48
57412;BME280;43247;52.828;-8.980;2023-05-24T01:52:43;102995.34;;;12.88;73.33
57412;BME280;43247;52.828;-8.980;2023-05-24T01:53:43;102994.58;;;12.89;73.38
57412;BME280;43247;52.828;-8.980;2023-05-24T01:54:43;102995.39;;;12.92;73.29
57412;BME280;43247;52.828;-8.980;2023-05-24T01:55:40;102993.99;;;12.95;73.43
57412;BME280;43247;52.828;-8.980;2023-05-24T01:56:40;102994.03;;;12.95;73.32
57412;BME280;43247;52.828;-8.980;2023-05-24T01:57:42;102989.37;;;12.88;73.55
57412;BME280;43247;52.828;-8.980;2023-05-24T01:58:42;102991.65;;;12.90;73.57
57412;BME280;43247;52.828;-8.980;2023-05-24T01:59:42;102991.11;;;12.88;73.60
57412;BME280;43247;52.828;-8.980;2023-05-24T02:00:40;102992.67;;;12.88;73.70
57412;BME280;43247;52.828;-8.980;2023-05-24T02:01:40;102995.40;;;12.83;73.83
57412;BME280;43247;52.828;-8.980;2023-05-24T02:02:41;102993.79;;;12.86;73.77
57412;BME280;43247;52.828;-8.980;2023-05-24T02:03:41;102994.09;;;12.90;73.76
57412;BME280;43247;52.828;-8.980;2023-05-24T02:04:41;102993.52;;;12.96;73.68
57412;BME280;43247;52.828;-8.980;2023-05-24T02:05:41;102993.69;;;13.02;73.57
57412;BME280;43247;52.828;-8.980;2023-05-24T02:06:41;102994.70;;;13.01;73.69
57412;BME280;43247;52.828;-8.980;2023-05-24T02:07:41;102995.56;;;13.03;73.77
57412;BME280;43247;52.828;-8.980;2023-05-24T02:08:42;102998.06;;;13.05;73.70
57412;BME280;43247;52.828;-8.980;2023-05-24T02:09:42;102998.04;;;13.07;73.83
57412;BME280;43247;52.828;-8.980;2023-05-24T02:10:42;103002.06;;;13.07;73.92
57412;BME280;43247;52.828;-8.980;2023-05-24T02:11:43;103004.43;;;13.08;74.15
57412;BME280;43247;52.828;-8.980;2023-05-24T02:12:43;103007.74;;;13.09;74.16
57412;BME280;43247;52.828;-8.980;2023-05-24T02:13:44;103008.06;;;13.10;74.11
57412;BME280;43247;52.828;-8.980;2023-05-24T02:14:44;103009.18;;;13.10;73.75
57412;BME280;43247;52.828;-8.980;2023-05-24T02:15:44;103008.62;;;13.11;73.68
57412;BME280;43247;52.828;-8.980;2023-05-24T02:16:44;103005.73;;;13.09;73.83
57412;BME280;43247;52.828;-8.980;2023-05-24T02:17:44;103002.08;;;13.09;73.92
57412;BME280;43247;52.828;-8.980;2023-05-24T02:18:44;103002.80;;;13.09;73.90
57412;BME280;43247;52.828;-8.980;2023-05-24T02:19:45;103001.82;;;13.08;74.09
57412;BME280;43247;52.828;-8.980;2023-05-24T02:20:45;103000.97;;;13.08;74.19
57412;BME280;43247;52.828;-8.980;2023-05-24T02:21:45;103000.21;;;13.08;74.19
57412;BME280;43247;52.828;-8.980;2023-05-24T02:22:45;102998.72;;;13.07;74.36
57412;BME280;43247;52.828;-8.980;2023-05-24T02:23:45;102996.57;;;13.07;74.32
57412;BME280;43247;52.828;-8.980;2023-05-24T02:24:46;102996.03;;;13.07;74.30
57412;BME280;43247;52.828;-8.980;2023-05-24T02:25:46;102995.72;;;13.06;74.41
57412;BME280;43247;52.828;-8.980;2023-05-24T02:26:46;102997.74;;;13.07;74.44
57412;BME280;43247;52.828;-8.980;2023-05-24T02:27:46;102998.31;;;13.07;74.58
57412;BME280;43247;52.828;-8.980;2023-05-24T02:28:47;103000.95;;;13.06;74.50
57412;BME280;43247;52.828;-8.980;2023-05-24T02:29:47;103001.72;;;13.06;74.44
57412;BME280;43247;52.828;-8.980;2023-05-24T02:30:47;102998.83;;;13.06;74.54
57412;BME280;43247;52.828;-8.980;2023-05-24T02:31:47;102998.75;;;13.06;74.56
57412;BME280;43247;52.828;-8.980;2023-05-24T02:32:47;102997.99;;;13.06;74.60
57412;BME280;43247;52.828;-8.980;2023-05-24T02:33:47;102998.61;;;13.06;74.69
57412;BME280;43247;52.828;-8.980;2023-05-24T02:34:48;102999.67;;;13.06;74.62
57412;BME280;43247;52.828;-8.980;2023-05-24T02:35:48;103001.47;;;13.05;74.71
57412;BME280;43247;52.828;-8.980;2023-05-24T02:36:48;102999.38;;;13.05;74.67
57412;BME280;43247;52.828;-8.980;2023-05-24T02:37:48;102998.22;;;13.05;74.74
57412;BME280;43247;52.828;-8.980;2023-05-24T02:38:49;102997.30;;;13.04;74.72
57412;BME280;43247;52.828;-8.980;2023-05-24T02:39:49;102996.58;;;13.04;74.76
57412;BME280;43247;52.828;-8.980;2023-05-24T02:40:49;102997.24;;;13.04;74.80
57412;BME280;43247;52.828;-8.980;2023-05-24T02:41:49;102995.92;;;13.04;74.74
57412;BME280;43247;52.828;-8.980;2023-05-24T02:42:50;102996.66;;;13.03;74.80
57412;BME280;43247;52.828;-8.980;2023-05-24T02:43:50;102994.53;;;13.03;74.75
57412;BME280;43247;52.828;-8.980;2023-05-24T02:44:50;102992.25;;;13.03;74.84
57412;BME280;43247;52.828;-8.980;2023-05-24T02:45:50;102987.87;;;13.03;74.88
57412;BME280;43247;52.828;-8.980;2023-05-24T02:46:50;102989.35;;;13.03;74.96
57412;BME280;43247;52.828;-8.980;2023-05-24T02:47:50;102988.62;;;13.02;74.98
57412;BME280;43247;52.828;-8.980;2023-05-24T02:48:51;102989.75;;;13.02;75.16
57412;BME280;43247;52.828;-8.980;2023-05-24T02:49:51;102993.04;;;13.01;75.15
57412;BME280;43247;52.828;-8.980;2023-05-24T02:50:51;102994.53;;;13.01;75.07
57412;BME280;43247;52.828;-8.980;2023-05-24T02:51:51;102997.14;;;13.01;75.15
57412;BME280;43247;52.828;-8.980;2023-05-24T02:52:51;102998.25;;;13.01;75.11
57412;BME280;43247;52.828;-8.980;2023-05-24T02:53:51;102997.48;;;13.01;75.12
57412;BME280;43247;52.828;-8.980;2023-05-24T02:54:52;102998.42;;;13.01;75.08
57412;BME280;43247;52.828;-8.980;2023-05-24T02:55:52;102998.12;;;13.00;75.05
57412;BME280;43247;52.828;-8.980;2023-05-24T02:56:53;102995.55;;;12.94;74.57
57412;BME280;43247;52.828;-8.980;2023-05-24T02:57:53;102995.75;;;12.80;74.43
57412;BME280;43247;52.828;-8.980;2023-05-24T02:58:53;102996.90;;;12.80;74.22
57412;BME280;43247;52.828;-8.980;2023-05-24T02:59:53;102998.32;;;12.79;74.00
57412;BME280;43247;52.828;-8.980;2023-05-24T03:00:53;103001.58;;;12.73;74.05
57412;BME280;43247;52.828;-8.980;2023-05-24T03:01:53;103002.89;;;12.76;74.03
57412;BME280;43247;52.828;-8.980;2023-05-24T03:02:54;103002.57;;;12.75;73.91
57412;BME280;43247;52.828;-8.980;2023-05-24T03:03:54;103001.76;;;12.78;73.92
57412;BME280;43247;52.828;-8.980;2023-05-24T03:04:54;102998.56;;;12.80;73.80
57412;BME280;43247;52.828;-8.980;2023-05-24T03:05:54;103001.20;;;12.77;74.04
57412;BME280;43247;52.828;-8.980;2023-05-24T03:06:54;103000.51;;;12.78;73.98
57412;BME280;43247;52.828;-8.980;2023-05-24T03:07:54;103000.22;;;12.78;74.01
57412;BME280;43247;52.828;-8.980;2023-05-24T03:08:55;102997.74;;;12.82;73.91
57412;BME280;43247;52.828;-8.980;2023-05-24T03:09:55;102998.56;;;12.84;73.90
57412;BME280;43247;52.828;-8.980;2023-05-24T03:10:55;102998.61;;;12.84;73.96
57412;BME280;43247;52.828;-8.980;2023-05-24T03:11:56;102999.69;;;12.84;73.92
57412;BME280;43247;52.828;-8.980;2023-05-24T03:12:56;103002.68;;;12.83;74.13
57412;BME280;43247;52.828;-8.980;2023-05-24T03:13:56;103004.49;;;12.82;73.97
57412;BME280;43247;52.828;-8.980;2023-05-24T03:14:57;103003.71;;;12.85;74.14
57412;BME280;43247;52.828;-8.980;2023-05-24T03:15:57;103003.61;;;12.87;74.24
57412;BME280;43247;52.828;-8.980;2023-05-24T03:16:57;103002.78;;;12.81;74.37
57412;BME280;43247;52.828;-8.980;2023-05-24T03:17:58;103000.30;;;12.81;74.35
57412;BME280;43247;52.828;-8.980;2023-05-24T03:18:58;102999.94;;;12.77;74.44
57412;BME280;43247;52.828;-8.980;2023-05-24T03:19:58;102996.83;;;12.81;74.49
57412;BME280;43247;52.828;-8.980;2023-05-24T03:20:58;103000.74;;;12.79;74.49
57412;BME280;43247;52.828;-8.980;2023-05-24T03:21:58;103002.26;;;12.79;74.48
57412;BME280;43247;52.828;-8.980;2023-05-24T03:22:59;102999.78;;;12.82;74.49
57412;BME280;43247;52.828;-8.980;2023-05-24T03:23:59;103002.20;;;12.89;74.50
57412;BME280;43247;52.828;-8.980;2023-05-24T03:24:59;103002.98;;;12.91;74.41
57412;BME280;43247;52.828;-8.980;2023-05-24T03:25:59;103002.19;;;12.92;74.34
57412;BME280;43247;52.828;-8.980;2023-05-24T03:26:59;103003.77;;;12.92;74.44
57412;BME280;43247;52.828;-8.980;2023-05-24T03:28:00;103004.46;;;12.92;74.38
57412;BME280;43247;52.828;-8.980;2023-05-24T03:29:00;103006.01;;;12.91;74.46
57412;BME280;43247;52.828;-8.980;2023-05-24T03:30:00;103008.66;;;12.79;74.32
57412;BME280;43247;52.828;-8.980;2023-05-24T03:31:00;103009.82;;;12.73;74.10
57412;BME280;43247;52.828;-8.980;2023-05-24T03:32:00;103007.63;;;12.74;73.30
57412;BME280;43247;52.828;-8.980;2023-05-24T03:33:00;103008.31;;;12.69;73.23
57412;BME280;43247;52.828;-8.980;2023-05-24T03:34:01;103008.90;;;12.65;73.17
57412;BME280;43247;52.828;-8.980;2023-05-24T03:35:01;103008.04;;;12.67;73.23
57412;BME280;43247;52.828;-8.980;2023-05-24T03:36:01;103008.11;;;12.67;73.15
57412;BME280;43247;52.828;-8.980;2023-05-24T03:37:01;103007.67;;;12.64;73.28
57412;BME280;43247;52.828;-8.980;2023-05-24T03:38:02;103006.10;;;12.65;73.28
57412;BME280;43247;52.828;-8.980;2023-05-24T03:39:02;103005.04;;;12.69;73.45
57412;BME280;43247;52.828;-8.980;2023-05-24T03:40:04;103006.82;;;12.71;73.39
57412;BME280;43247;52.828;-8.980;2023-05-24T03:41:03;103006.54;;;12.79;73.26
57412;BME280;43247;52.828;-8.980;2023-05-24T03:42:04;103006.09;;;12.83;73.19
57412;BME280;43247;52.828;-8.980;2023-05-24T03:43:04;103002.83;;;12.86;73.07
57412;BME280;43247;52.828;-8.980;2023-05-24T03:44:04;103002.67;;;12.87;73.05
57412;BME280;43247;52.828;-8.980;2023-05-24T03:45:05;103001.23;;;12.85;73.29
57412;BME280;43247;52.828;-8.980;2023-05-24T03:46:04;103001.13;;;12.85;73.54
57412;BME280;43247;52.828;-8.980;2023-05-24T03:47:04;102999.53;;;12.84;73.43
57412;BME280;43247;52.828;-8.980;2023-05-24T03:48:05;103002.85;;;12.77;73.66
57412;BME280;43247;52.828;-8.980;2023-05-24T03:49:05;102998.12;;;12.80;73.62
57412;BME280;43247;52.828;-8.980;2023-05-24T03:50:06;103000.86;;;12.74;73.94
57412;BME280;43247;52.828;-8.980;2023-05-24T03:51:06;103000.19;;;12.73;73.99
57412;BME280;43247;52.828;-8.980;2023-05-24T03:52:06;103000.99;;;12.79;74.00
57412;BME280;43247;52.828;-8.980;2023-05-24T03:53:06;102997.13;;;12.89;73.70
57412;BME280;43247;52.828;-8.980;2023-05-24T03:54:06;102999.18;;;12.90;73.72
57412;BME280;43247;52.828;-8.980;2023-05-24T03:55:07;103000.88;;;12.94;73.65
57412;BME280;43247;52.828;-8.980;2023-05-24T03:56:07;103000.58;;;12.97;73.63
57412;BME280;43247;52.828;-8.980;2023-05-24T03:57:07;103001.02;;;12.97;73.87
57412;BME280;43247;52.828;-8.980;2023-05-24T03:58:07;102999.26;;;12.99;73.80
57412;BME280;43247;52.828;-8.980;2023-05-24T03:59:08;102999.73;;;12.98;73.93
57412;BME280;43247;52.828;-8.980;2023-05-24T04:00:09;102998.55;;;13.00;74.04
57412;BME280;43247;52.828;-8.980;2023-05-24T04:01:08;102999.98;;;13.00;74.06
57412;BME280;43247;52.828;-8.980;2023-05-24T04:02:08;102999.26;;;13.01;74.16
57412;BME280;43247;52.828;-8.980;2023-05-24T04:03:08;103001.13;;;13.00;74.24
57412;BME280;43247;52.828;-8.980;2023-05-24T04:04:09;103002.12;;;13.01;74.37
57412;BME280;43247;52.828;-8.980;2023-05-24T04:05:09;103000.13;;;13.01;74.38
57412;BME280;43247;52.828;-8.980;2023-05-24T04:06:09;103001.76;;;13.01;74.36
57412;BME280;43247;52.828;-8.980;2023-05-24T04:07:09;103004.25;;;13.01;74.36
57412;BME280;43247;52.828;-8.980;2023-05-24T04:08:09;103006.20;;;13.02;74.37
57412;BME280;43247;52.828;-8.980;2023-05-24T04:09:09;103006.34;;;13.03;74.54
57412;BME280;43247;52.828;-8.980;2023-05-24T04:10:10;103006.23;;;13.03;74.42
57412;BME280;43247;52.828;-8.980;2023-05-24T04:11:10;103005.11;;;13.03;74.35
57412;BME280;43247;52.828;-8.980;2023-05-24T04:12:10;103008.35;;;13.04;74.44
57412;BME280;43247;52.828;-8.980;2023-05-24T04:13:11;103011.37;;;13.04;74.43
57412;BME280;43247;52.828;-8.980;2023-05-24T04:14:11;103010.13;;;13.04;74.50
57412;BME280;43247;52.828;-8.980;2023-05-24T04:15:11;103012.53;;;13.04;74.51
57412;BME280;43247;52.828;-8.980;2023-05-24T04:16:11;103015.23;;;13.04;74.49
57412;BME280;43247;52.828;-8.980;2023-05-24T04:17:11;103016.74;;;13.04;74.64
57412;BME280;43247;52.828;-8.980;2023-05-24T04:18:11;103016.59;;;13.04;74.68
57412;BME280;43247;52.828;-8.980;2023-05-24T04:19:12;103012.27;;;13.04;74.75
57412;BME280;43247;52.828;-8.980;2023-05-24T04:20:12;103013.68;;;13.04;74.78
57412;BME280;43247;52.828;-8.980;2023-05-24T04:21:12;103013.05;;;13.04;74.86
57412;BME280;43247;52.828;-8.980;2023-05-24T04:22:13;103011.29;;;13.04;74.88
57412;BME280;43247;52.828;-8.980;2023-05-24T04:23:13;103011.08;;;13.03;74.90
57412;BME280;43247;52.828;-8.980;2023-05-24T04:24:14;103013.66;;;13.03;74.94
57412;BME280;43247;52.828;-8.980;2023-05-24T04:25:14;103014.31;;;13.03;74.97
57412;BME280;43247;52.828;-8.980;2023-05-24T04:26:14;103015.75;;;13.03;75.01
57412;BME280;43247;52.828;-8.980;2023-05-24T04:27:14;103014.64;;;13.03;75.16
57412;BME280;43247;52.828;-8.980;2023-05-24T04:28:14;103014.80;;;13.03;75.12
57412;BME280;43247;52.828;-8.980;2023-05-24T04:29:15;103014.73;;;13.02;75.12
57412;BME280;43247;52.828;-8.980;2023-05-24T04:30:15;103017.56;;;13.02;75.17
57412;BME280;43247;52.828;-8.980;2023-05-24T04:31:15;103017.41;;;13.02;75.19
57412;BME280;43247;52.828;-8.980;2023-05-24T04:32:15;103017.62;;;13.02;75.21
57412;BME280;43247;52.828;-8.980;2023-05-24T04:33:15;103017.10;;;13.02;75.27
57412;BME280;43247;52.828;-8.980;2023-05-24T04:34:15;103015.17;;;13.01;75.35
57412;BME280;43247;52.828;-8.980;2023-05-24T04:35:16;103015.94;;;13.01;75.36
57412;BME280;43247;52.828;-8.980;2023-05-24T04:36:16;103014.33;;;13.01;75.41
57412;BME280;43247;52.828;-8.980;2023-05-24T04:37:16;103014.76;;;13.01;75.47
57412;BME280;43247;52.828;-8.980;2023-05-24T04:38:16;103014.65;;;13.02;75.48
57412;BME280;43247;52.828;-8.980;2023-05-24T04:39:16;103014.88;;;13.01;75.42
57412;BME280;43247;52.828;-8.980;2023-05-24T04:40:17;103015.04;;;13.00;75.32
57412;BME280;43247;52.828;-8.980;2023-05-24T04:41:17;103015.64;;;13.00;75.35
57412;BME280;43247;52.828;-8.980;2023-05-24T04:42:17;103016.99;;;13.00;75.36
57412;BME280;43247;52.828;-8.980;2023-05-24T04:43:17;103015.51;;;13.00;75.42
57412;BME280;43247;52.828;-8.980;2023-05-24T04:44:17;103013.05;;;12.99;75.48
57412;BME280;43247;52.828;-8.980;2023-05-24T04:45:18;103011.02;;;12.99;75.46
57412;BME280;43247;52.828;-8.980;2023-05-24T04:46:18;103008.59;;;12.99;75.51
57412;BME280;43247;52.828;-8.980;2023-05-24T04:47:18;103008.14;;;12.99;75.56
57412;BME280;43247;52.828;-8.980;2023-05-24T04:48:18;103008.96;;;12.99;75.58
57412;BME280;43247;52.828;-8.980;2023-05-24T04:49:18;103012.01;;;12.99;75.58
57412;BME280;43247;52.828;-8.980;2023-05-24T04:50:19;103013.49;;;12.99;75.60
57412;BME280;43247;52.828;-8.980;2023-05-24T04:51:20;103013.01;;;12.98;75.68
57412;BME280;43247;52.828;-8.980;2023-05-24T04:52:19;103013.56;;;12.99;75.60
57412;BME280;43247;52.828;-8.980;2023-05-24T04:53:20;103013.65;;;12.99;75.58
57412;BME280;43247;52.828;-8.980;2023-05-24T04:54:19;103012.12;;;12.99;75.65
57412;BME280;43247;52.828;-8.980;2023-05-24T04:55:20;103013.27;;;12.99;75.61
57412;BME280;43247;52.828;-8.980;2023-05-24T04:56:20;103016.55;;;12.99;75.65
57412;BME280;43247;52.828;-8.980;2023-05-24T04:57:20;103017.53;;;12.99;75.66
57412;BME280;43247;52.828;-8.980;2023-05-24T04:58:20;103018.98;;;12.98;75.69
57412;BME280;43247;52.828;-8.980;2023-05-24T04:59:20;103018.61;;;12.99;75.68
57412;BME280;43247;52.828;-8.980;2023-05-24T05:00:20;103015.16;;;12.99;75.72
57412;BME280;43247;52.828;-8.980;2023-05-24T05:01:20;103016.22;;;12.98;75.75
57412;BME280;43247;52.828;-8.980;2023-05-24T05:02:21;103018.08;;;12.99;75.75
57412;BME280;43247;52.828;-8.980;2023-05-24T05:03:21;103021.28;;;12.99;75.80
57412;BME280;43247;52.828;-8.980;2023-05-24T05:04:21;103024.86;;;13.00;75.77
57412;BME280;43247;52.828;-8.980;2023-05-24T05:05:21;103024.99;;;12.99;75.72
57412;BME280;43247;52.828;-8.980;2023-05-24T05:06:21;103024.96;;;13.00;75.68
57412;BME280;43247;52.828;-8.980;2023-05-24T05:07:21;103023.32;;;12.99;75.71
57412;BME280;43247;52.828;-8.980;2023-05-24T05:08:22;103022.17;;;12.99;75.66
57412;BME280;43247;52.828;-8.980;2023-05-24T05:09:22;103020.66;;;12.99;75.68
57412;BME280;43247;52.828;-8.980;2023-05-24T05:10:22;103021.60;;;13.00;75.72
57412;BME280;43247;52.828;-8.980;2023-05-24T05:11:22;103020.61;;;13.00;75.75